Time;durP1;ratioP1;P1;durP2;ratioP2;P2;SDS_P1;SDS_P2;PMS_P1;PMS_P2;Temp;Humidity;BMP_temperature;BMP_pressure;BME280_temperature;BME280_humidity;BME280_pressure;Samples;Min_cycle;Max_cycle;Signal;HPM_P1;HPM_P2
2023/11/02 00:01:32;;;;;;;2.50;1.20;;;10.00;99.90;;;;;;4936189;29;20768;-72
2023/11/02 00:03:58;;;;;;;1.80;0.87;;;10.00;99.90;;;;;;4902432;29;20592;-73
2023/11/02 00:06:39;;;;;;;3.03;1.57;;;10.10;99.90;;;;;;4926717;29;20467;-74
2023/11/02 00:09:10;;;;;;;7.63;1.50;;;10.20;99.90;;;;;;4926522;29;20415;-74
2023/11/02 00:11:54;;;;;;;3.57;1.03;;;10.30;99.90;;;;;;4910056;29;21240;-73
2023/11/02 00:14:21;;;;;;;1.33;0.87;;;10.40;99.90;;;;;;4916802;29;20431;-75
2023/11/02 00:16:47;;;;;;;1.30;0.80;;;10.50;99.90;;;;;;4915454;29;20414;-72
2023/11/02 00:19:29;;;;;;;1.47;0.70;;;10.60;99.90;;;;;;4927632;29;20431;-74
2023/11/02 00:22:06;;;;;;;3.20;1.07;;;10.60;99.90;;;;;;4933984;29;20505;-74
2023/11/02 00:24:34;;;;;;;2.03;0.80;;;10.70;99.90;;;;;;4933702;29;20469;-73
2023/11/02 00:27:00;;;;;;;6.43;1.30;;;10.80;99.90;;;;;;4938556;29;20427;-74
2023/11/02 00:29:26;;;;;;;3.80;1.50;;;10.90;99.90;;;;;;4945849;29;20501;-74
2023/11/02 00:31:53;;;;;;;1.50;0.87;;;11.00;99.90;;;;;;4937125;29;20195;-73
2023/11/02 00:34:19;;;;;;;3.97;1.00;;;11.00;99.90;;;;;;4935678;29;20196;-73
2023/11/02 00:36:45;;;;;;;2.70;1.30;;;11.10;99.90;;;;;;4926209;29;20893;-73
2023/11/02 00:39:11;;;;;;;3.43;1.50;;;11.10;99.90;;;;;;4932293;29;20195;-73
2023/11/02 00:41:37;;;;;;;1.90;0.70;;;11.10;99.90;;;;;;4943757;29;20415;-73
2023/11/02 00:44:04;;;;;;;2.03;1.00;;;11.10;99.90;;;;;;4934671;29;20483;-73
2023/11/02 00:46:34;;;;;;;2.63;0.90;;;11.10;99.90;;;;;;4934404;29;20521;-74
2023/11/02 00:49:00;;;;;;;2.90;1.10;;;11.10;99.90;;;;;;4940637;29;20449;-73
2023/11/02 00:51:30;;;;;;;2.50;0.80;;;11.10;99.90;;;;;;4926149;29;20484;-74
2023/11/02 00:53:57;;;;;;;3.83;0.90;;;11.20;99.90;;;;;;4938627;29;20464;-72
2023/11/02 00:56:26;;;;;;;4.37;0.90;;;11.20;99.90;;;;;;4924853;29;20547;-74
2023/11/02 00:58:53;;;;;;;3.10;0.90;;;11.20;99.90;;;;;;4928342;29;21039;-74
2023/11/02 01:01:21;;;;;;;5.60;1.13;;;11.20;99.90;;;;;;4917025;29;20426;-72
2023/11/02 01:03:55;;;;;;;4.07;1.00;;;11.20;99.90;;;;;;4922858;29;20479;-73
2023/11/02 01:06:26;;;;;;;2.73;1.33;;;11.20;99.90;;;;;;4922931;29;20438;-74
2023/11/02 01:09:04;;;;;;;2.13;0.90;;;11.20;99.90;;;;;;4933650;29;20907;-74
2023/11/02 01:11:36;;;;;;;1.27;0.80;;;11.20;99.90;;;;;;4924955;29;20497;-73
2023/11/02 01:14:26;;;;;;;3.63;0.93;;;11.20;99.90;;;;;;4918267;29;20741;-74
2023/11/02 01:16:52;;;;;;;2.60;1.10;;;11.20;99.90;;;;;;4934318;29;20443;-73
2023/11/02 01:19:55;;;;;;;4.00;1.33;;;11.20;99.90;;;;;;4920230;29;20737;-73
2023/11/02 01:22:29;;;;;;;4.43;1.17;;;11.30;99.90;;;;;;4922008;29;20200;-73
2023/11/02 01:25:11;;;;;;;4.63;1.10;;;11.30;99.90;;;;;;4924521;29;20484;-74
2023/11/02 01:27:37;;;;;;;3.57;1.30;;;11.30;99.90;;;;;;4934377;29;20725;-74
2023/11/02 01:30:48;;;;;;;2.30;0.80;;;11.30;99.90;;;;;;4927031;29;20424;-74
2023/11/02 01:33:39;;;;;;;2.97;1.10;;;11.30;99.90;;;;;;4920401;29;20197;-72
2023/11/02 01:36:08;;;;;;;4.10;1.10;;;11.30;99.90;;;;;;4919721;29;20451;-74
2023/11/02 01:38:35;;;;;;;3.07;1.00;;;11.30;99.90;;;;;;4924490;29;20457;-74
2023/11/02 01:41:09;;;;;;;2.27;1.03;;;11.20;99.90;;;;;;4923641;29;20431;-73
2023/11/02 01:44:11;;;;;;;3.77;1.20;;;11.20;99.90;;;;;;4920946;29;20746;-72
2023/11/02 01:47:04;;;;;;;2.30;1.17;;;11.30;99.90;;;;;;4916216;29;20478;-74
2023/11/02 01:49:48;;;;;;;3.87;1.07;;;11.30;99.90;;;;;;4935830;29;20513;-74
2023/11/02 01:52:25;;;;;;;1.67;0.87;;;11.30;99.90;;;;;;4939891;29;20443;-74
2023/11/02 01:55:14;;;;;;;2.20;1.00;;;11.40;99.90;;;;;;4908214;29;20734;-73
2023/11/02 01:57:53;;;;;;;2.90;1.23;;;11.40;99.90;;;;;;4917240;29;20739;-74
2023/11/02 02:00:24;;;;;;;2.53;1.03;;;11.40;99.90;;;;;;4908451;29;20465;-73
2023/11/02 02:02:54;;;;;;;4.20;1.10;;;11.40;99.90;;;;;;4923350;29;20567;-72
2023/11/02 02:05:51;;;;;;;1.93;0.90;;;11.40;99.90;;;;;;4908560;29;20448;-73
2023/11/02 02:08:28;;;;;;;2.50;1.00;;;11.40;99.90;;;;;;4935007;29;20466;-73
2023/11/02 02:11:17;;;;;;;3.53;1.30;;;11.40;99.90;;;;;;4918570;29;20866;-74
2023/11/02 02:13:43;;;;;;;4.73;1.10;;;11.40;99.90;;;;;;4916268;29;20485;-74
2023/11/02 02:16:26;;;;;;;3.73;1.03;;;11.40;99.90;;;;;;4935043;29;20474;-72
2023/11/02 02:18:54;;;;;;;2.10;1.13;;;11.30;99.90;;;;;;4925145;29;20412;-75
2023/11/02 02:21:30;;;;;;;1.20;0.90;;;11.30;99.90;;;;;;4942173;29;20436;-73
2023/11/02 02:24:08;;;;;;;4.17;1.40;;;11.30;99.90;;;;;;4926007;29;20468;-74
2023/11/02 02:26:33;;;;;;;3.13;1.10;;;11.30;99.90;;;;;;4913280;29;20426;-73
2023/11/02 02:29:18;;;;;;;2.23;1.20;;;11.30;99.90;;;;;;4924124;29;20435;-73
2023/11/02 02:32:19;;;;;;;1.80;0.90;;;11.30;99.90;;;;;;4941794;29;20208;-72
2023/11/02 02:35:08;;;;;;;2.33;1.00;;;11.30;99.90;;;;;;4923966;29;20943;-74
2023/11/02 02:37:34;;;;;;;3.40;1.47;;;11.30;99.90;;;;;;4899590;29;20719;-73
2023/11/02 02:40:06;;;;;;;3.83;1.40;;;11.30;99.90;;;;;;4931522;29;20734;-74
2023/11/02 02:42:37;;;;;;;6.50;1.47;;;11.40;99.90;;;;;;4908907;29;20427;-74
2023/11/02 02:45:10;;;;;;;4.67;1.30;;;11.40;99.90;;;;;;4938373;29;20454;-73
2023/11/02 02:47:40;;;;;;;2.03;1.40;;;11.40;99.90;;;;;;4921769;29;20523;-73
2023/11/02 02:50:14;;;;;;;3.77;1.50;;;11.40;99.90;;;;;;4931400;29;20947;-72
2023/11/02 02:52:41;;;;;;;7.47;1.40;;;11.50;99.90;;;;;;4908608;29;20477;-73
2023/11/02 02:55:11;;;;;;;4.90;1.33;;;11.50;99.90;;;;;;4909723;29;20522;-74
2023/11/02 02:57:44;;;;;;;2.60;1.00;;;11.50;99.90;;;;;;4936549;29;20441;-73
2023/11/02 03:00:14;;;;;;;7.13;2.50;;;11.60;99.90;;;;;;4931877;29;20858;-73
2023/11/02 03:02:41;;;;;;;5.43;1.60;;;11.60;99.90;;;;;;4904486;29;20469;-71
2023/11/02 03:05:12;;;;;;;2.50;1.30;;;11.50;99.90;;;;;;4921241;29;20437;-75
2023/11/02 03:07:44;;;;;;;4.13;1.37;;;11.60;99.90;;;;;;4904447;29;20506;-74
2023/11/02 03:10:12;;;;;;;5.50;1.70;;;11.60;99.90;;;;;;4925497;29;20426;-74
2023/11/02 03:12:42;;;;;;;5.33;1.80;;;11.60;99.90;;;;;;4934141;29;20433;-74
2023/11/02 03:15:08;;;;;;;3.57;1.37;;;11.70;99.90;;;;;;4924829;29;20462;-73
2023/11/02 03:18:02;;;;;;;4.17;1.50;;;11.60;99.90;;;;;;4937325;29;20527;-74
2023/11/02 03:20:27;;;;;;;3.87;1.30;;;11.60;99.90;;;;;;4924612;29;20429;-72
2023/11/02 03:23:10;;;;;;;6.47;2.10;;;11.60;99.90;;;;;;4907320;29;20502;-73
2023/11/02 03:25:39;;;;;;;7.00;1.70;;;11.60;99.90;;;;;;4922986;29;20256;-73
2023/11/02 03:28:33;;;;;;;3.27;1.10;;;11.60;99.90;;;;;;4925448;29;20918;-72
2023/11/02 03:31:27;;;;;;;6.37;1.33;;;11.70;99.90;;;;;;4921401;29;20437;-74
2023/11/02 03:34:24;;;;;;;4.87;2.03;;;11.60;99.90;;;;;;4936921;29;20429;-73
2023/11/02 03:37:08;;;;;;;2.83;1.03;;;11.70;99.90;;;;;;4904266;29;20430;-73
2023/11/02 03:39:55;;;;;;;4.33;1.00;;;11.70;99.90;;;;;;4926601;29;20568;-73
2023/11/02 03:42:43;;;;;;;3.00;1.47;;;11.70;99.90;;;;;;4911728;29;20425;-72
2023/11/02 03:45:16;;;;;;;4.43;1.10;;;11.70;99.90;;;;;;4929909;29;20469;-72
2023/11/02 03:47:41;;;;;;;4.70;1.20;;;11.70;99.90;;;;;;4924537;29;20474;-72
2023/11/02 03:50:44;;;;;;;4.43;1.10;;;11.70;99.90;;;;;;4938519;29;20431;-73
2023/11/02 03:53:28;;;;;;;3.60;1.00;;;11.70;99.90;;;;;;4921333;29;20190;-73
2023/11/02 03:56:12;;;;;;;2.83;1.10;;;11.70;99.90;;;;;;4934122;29;20467;-73
2023/11/02 03:58:56;;;;;;;2.63;1.30;;;11.80;99.90;;;;;;4938461;29;20469;-74
2023/11/02 04:01:44;;;;;;;6.40;1.60;;;11.90;99.90;;;;;;4941068;29;20500;-74
2023/11/02 04:04:25;;;;;;;3.83;1.20;;;11.80;99.90;;;;;;4915091;29;20556;-72
2023/11/02 04:06:57;;;;;;;2.73;1.43;;;11.80;99.90;;;;;;4933931;29;20456;-73
2023/11/02 04:09:29;;;;;;;6.77;1.20;;;11.80;99.90;;;;;;4930568;29;20510;-75
2023/11/02 04:12:26;;;;;;;1.60;1.00;;;11.70;99.90;;;;;;4939734;29;20433;-74
2023/11/02 04:14:56;;;;;;;3.43;1.10;;;11.70;99.90;;;;;;4939624;29;20749;-74
2023/11/02 04:17:22;;;;;;;3.17;1.20;;;11.70;99.90;;;;;;4933595;29;20431;-74
2023/11/02 04:19:48;;;;;;;3.10;0.90;;;11.70;99.90;;;;;;4928141;29;20847;-75
2023/11/02 04:22:13;;;;;;;2.33;0.80;;;11.70;99.90;;;;;;4913441;29;20197;-74
2023/11/02 04:24:42;;;;;;;1.97;0.90;;;11.80;99.90;;;;;;4942762;29;20474;-74
2023/11/02 04:27:09;;;;;;;2.53;1.40;;;11.70;99.90;;;;;;4934003;29;20595;-74
2023/11/02 04:29:34;;;;;;;2.40;1.17;;;11.70;99.90;;;;;;4928928;29;20418;-74
2023/11/02 04:32:00;;;;;;;4.30;1.30;;;11.80;99.90;;;;;;4925312;29;20719;-75
2023/11/02 04:34:26;;;;;;;3.77;1.20;;;11.90;99.90;;;;;;4924715;29;20277;-74
2023/11/02 04:36:51;;;;;;;3.57;1.30;;;11.90;99.90;;;;;;4929279;29;20202;-73
2023/11/02 04:39:17;;;;;;;7.70;1.77;;;11.90;99.90;;;;;;4913219;29;20582;-72
2023/11/02 04:41:42;;;;;;;2.60;1.10;;;11.90;99.90;;;;;;4922091;29;20214;-73
2023/11/02 04:44:08;;;;;;;2.73;0.93;;;11.90;99.90;;;;;;4908190;29;20230;-73
2023/11/02 04:46:34;;;;;;;5.83;1.77;;;11.80;99.90;;;;;;4928169;29;20598;-73
2023/11/02 04:49:00;;;;;;;2.73;1.00;;;11.80;99.90;;;;;;4933147;29;20178;-74
2023/11/02 04:51:25;;;;;;;3.27;1.53;;;11.80;99.90;;;;;;4935745;29;20418;-73
2023/11/02 04:53:51;;;;;;;2.53;1.03;;;11.80;99.90;;;;;;4927762;29;20163;-74
2023/11/02 04:56:19;;;;;;;5.33;2.00;;;11.90;99.90;;;;;;4935161;29;20360;-73
2023/11/02 04:58:45;;;;;;;6.63;1.93;;;11.90;99.90;;;;;;4933104;29;20224;-72
2023/11/02 05:01:10;;;;;;;2.80;1.20;;;11.70;99.90;;;;;;4934557;29;20421;-73
2023/11/02 05:03:36;;;;;;;5.43;1.77;;;11.60;99.90;;;;;;4943494;29;20211;-74
2023/11/02 05:06:02;;;;;;;3.07;1.50;;;11.50;99.90;;;;;;4907851;29;20222;-74
2023/11/02 05:08:27;;;;;;;4.13;1.10;;;11.50;99.90;;;;;;4933023;29;20523;-73
2023/11/02 05:10:53;;;;;;;2.90;1.23;;;11.50;99.90;;;;;;4908956;29;20194;-73
2023/11/02 05:13:18;;;;;;;4.50;1.20;;;11.50;99.90;;;;;;4918569;29;20206;-74
2023/11/02 05:15:44;;;;;;;4.20;0.90;;;11.50;99.90;;;;;;4924779;29;20210;-73
2023/11/02 05:18:09;;;;;;;2.20;1.00;;;11.60;99.90;;;;;;4933116;29;20205;-72
2023/11/02 05:20:35;;;;;;;5.23;1.30;;;11.60;99.90;;;;;;4936371;29;20202;-73
2023/11/02 05:23:01;;;;;;;2.20;1.00;;;11.70;99.90;;;;;;4937257;29;20219;-74
2023/11/02 05:25:26;;;;;;;11.83;1.87;;;11.70;99.90;;;;;;4933753;29;20211;-75
2023/11/02 05:27:52;;;;;;;7.07;1.33;;;11.70;99.90;;;;;;4939956;29;20261;-73
2023/11/02 05:30:18;;;;;;;6.43;1.13;;;11.80;99.90;;;;;;4937194;29;20356;-76
2023/11/02 05:32:44;;;;;;;7.90;1.50;;;11.80;99.90;;;;;;4940428;29;20270;-72
2023/11/02 05:35:09;;;;;;;1.40;0.73;;;11.90;99.90;;;;;;4942369;29;20257;-73
2023/11/02 05:37:36;;;;;;;6.53;1.63;;;11.90;99.90;;;;;;4940447;29;20177;-74
2023/11/02 05:40:02;;;;;;;5.60;1.10;;;11.90;99.90;;;;;;4936588;29;20257;-75
2023/11/02 05:42:28;;;;;;;3.70;1.13;;;11.80;99.90;;;;;;4930568;29;20713;-73
2023/11/02 05:44:53;;;;;;;3.20;0.97;;;11.80;99.90;;;;;;4934849;29;20531;-74
2023/11/02 05:47:19;;;;;;;1.30;0.83;;;11.70;99.90;;;;;;4925460;29;20178;-73
2023/11/02 05:49:45;;;;;;;2.90;0.97;;;11.70;99.90;;;;;;4910093;29;20213;-74
2023/11/02 05:52:10;;;;;;;4.73;0.97;;;11.70;99.90;;;;;;4910929;29;20272;-74
2023/11/02 05:54:36;;;;;;;3.27;1.00;;;11.80;99.90;;;;;;4942669;29;20625;-74
2023/11/02 05:57:03;;;;;;;3.83;1.03;;;11.80;99.90;;;;;;4936475;29;20192;-74
2023/11/02 05:59:28;;;;;;;3.97;1.10;;;11.80;99.90;;;;;;4938337;29;20462;-73
2023/11/02 06:01:54;;;;;;;1.53;0.93;;;11.90;99.90;;;;;;4946169;29;20199;-75
2023/11/02 06:04:20;;;;;;;5.33;0.90;;;12.00;99.90;;;;;;4914825;29;20253;-74
2023/11/02 06:06:46;;;;;;;2.20;0.80;;;11.90;99.90;;;;;;4940776;29;20308;-75
2023/11/02 06:09:12;;;;;;;2.07;1.00;;;11.90;99.90;;;;;;4922106;29;20181;-73
2023/11/02 06:11:38;;;;;;;2.83;1.13;;;11.90;99.90;;;;;;4930844;29;20222;-75
2023/11/02 06:14:04;;;;;;;4.50;1.10;;;12.00;99.90;;;;;;4939524;29;20440;-75
2023/11/02 06:16:29;;;;;;;2.83;0.90;;;11.90;99.90;;;;;;4907048;29;20710;-75
2023/11/02 06:18:55;;;;;;;4.07;1.40;;;11.90;99.90;;;;;;4905797;29;20307;-74
2023/11/02 06:21:21;;;;;;;2.27;1.00;;;11.90;99.90;;;;;;4936383;29;20190;-73
2023/11/02 06:23:47;;;;;;;6.43;1.93;;;11.90;99.90;;;;;;4931396;29;20228;-75
2023/11/02 06:26:13;;;;;;;3.87;1.13;;;11.90;99.90;;;;;;4930220;29;20198;-76
2023/11/02 06:28:39;;;;;;;5.20;0.80;;;11.90;99.90;;;;;;4940407;29;20205;-74
2023/11/02 06:31:05;;;;;;;4.00;1.03;;;11.90;99.90;;;;;;4938690;29;20504;-76
2023/11/02 06:33:33;;;;;;;1.60;1.00;;;12.00;99.90;;;;;;4928285;29;20181;-76
2023/11/02 06:36:00;;;;;;;3.20;1.40;;;11.90;99.90;;;;;;4935892;29;20211;-75
2023/11/02 06:38:26;;;;;;;2.77;1.07;;;11.90;99.90;;;;;;4947011;29;20429;-75
2023/11/02 06:40:51;;;;;;;3.03;0.80;;;11.90;99.90;;;;;;4941207;29;20423;-75
2023/11/02 06:43:20;;;;;;;1.40;0.90;;;11.90;99.90;;;;;;4917215;29;20295;-78
2023/11/02 06:45:46;;;;;;;1.30;0.70;;;11.90;99.90;;;;;;4898413;29;20219;-77
2023/11/02 06:48:11;;;;;;;2.40;1.13;;;11.90;99.90;;;;;;4927942;29;20519;-77
2023/11/02 06:50:37;;;;;;;1.30;0.90;;;11.90;99.90;;;;;;4941500;29;20207;-78
2023/11/02 06:53:03;;;;;;;1.50;0.90;;;11.90;99.90;;;;;;4930074;29;20204;-75
2023/11/02 06:55:28;;;;;;;2.23;0.90;;;11.90;99.90;;;;;;4944667;29;20232;-75
2023/11/02 06:57:54;;;;;;;2.13;1.07;;;11.90;99.90;;;;;;4900456;29;20232;-77
2023/11/02 07:00:20;;;;;;;4.50;1.10;;;12.00;99.90;;;;;;4911266;29;20245;-77
2023/11/02 07:02:46;;;;;;;2.73;1.20;;;12.00;99.90;;;;;;4926313;29;20219;-74
2023/11/02 07:05:11;;;;;;;2.03;0.90;;;12.00;99.90;;;;;;4910387;29;20818;-76
2023/11/02 07:07:40;;;;;;;4.40;1.17;;;12.00;99.90;;;;;;4936913;29;20281;-76
2023/11/02 07:10:07;;;;;;;1.87;0.83;;;11.90;99.90;;;;;;4909460;29;20261;-74
2023/11/02 07:12:32;;;;;;;2.23;1.00;;;11.90;99.90;;;;;;4944287;29;20741;-75
2023/11/02 07:14:58;;;;;;;1.73;0.80;;;11.80;99.90;;;;;;4926280;29;20453;-75
2023/11/02 07:17:26;;;;;;;2.53;1.07;;;11.80;99.90;;;;;;4945224;29;20179;-75
2023/11/02 07:19:53;;;;;;;2.50;0.80;;;11.60;99.90;;;;;;4917898;29;20550;-76
2023/11/02 07:22:19;;;;;;;4.03;0.90;;;11.40;99.90;;;;;;4924084;29;20432;-76
2023/11/02 07:24:45;;;;;;;2.30;1.00;;;11.20;99.90;;;;;;4910073;29;20542;-76
2023/11/02 07:27:11;;;;;;;2.90;0.80;;;11.10;99.90;;;;;;4892930;29;20434;-77
2023/11/02 07:29:37;;;;;;;2.03;0.80;;;10.90;99.90;;;;;;4926023;29;20436;-75
2023/11/02 07:32:03;;;;;;;1.90;0.80;;;10.70;99.90;;;;;;4911910;29;20187;-73
2023/11/02 07:34:29;;;;;;;2.23;0.90;;;10.60;99.90;;;;;;4924744;29;20707;-77
2023/11/02 07:36:56;;;;;;;1.53;0.80;;;10.50;99.90;;;;;;4923724;29;20434;-76
2023/11/02 07:39:22;;;;;;;2.90;1.73;;;10.50;99.90;;;;;;4901525;29;20492;-76
2023/11/02 07:41:47;;;;;;;1.80;1.00;;;10.40;99.90;;;;;;4943781;29;20766;-76
2023/11/02 07:44:15;;;;;;;1.40;0.90;;;10.40;99.90;;;;;;4894002;29;20226;-76
2023/11/02 07:46:42;;;;;;;3.20;1.13;;;10.40;99.90;;;;;;4914842;29;20849;-78
2023/11/02 07:49:10;;;;;;;1.40;0.70;;;10.40;99.90;;;;;;4899281;29;20182;-74
2023/11/02 07:51:36;;;;;;;3.00;1.03;;;10.40;99.90;;;;;;4935171;29;20842;-73
2023/11/02 07:54:01;;;;;;;3.00;1.10;;;10.40;99.90;;;;;;4926745;29;20513;-76
2023/11/02 07:56:28;;;;;;;2.53;1.30;;;10.40;99.90;;;;;;4937993;29;20458;-77
2023/11/02 07:58:54;;;;;;;2.13;1.07;;;10.40;99.90;;;;;;4926539;29;20225;-76
2023/11/02 08:01:23;;;;;;;1.93;0.93;;;10.40;99.90;;;;;;4939453;29;20433;-74
2023/11/02 08:03:49;;;;;;;2.70;0.80;;;10.50;99.90;;;;;;4904044;29;20210;-75
2023/11/02 08:06:15;;;;;;;1.30;0.97;;;10.50;99.90;;;;;;4947415;29;20452;-78
2023/11/02 08:08:40;;;;;;;1.90;0.90;;;10.50;99.90;;;;;;4927340;29;20284;-77
2023/11/02 08:11:06;;;;;;;3.63;2.13;;;10.50;99.90;;;;;;4930277;29;20182;-77
2023/11/02 08:13:32;;;;;;;2.30;0.83;;;10.60;99.90;;;;;;4928584;29;20463;-76
2023/11/02 08:15:58;;;;;;;2.13;1.10;;;10.60;99.90;;;;;;4922362;29;20283;-79
2023/11/02 08:18:24;;;;;;;1.10;0.80;;;10.60;99.90;;;;;;4929660;29;20266;-76
2023/11/02 08:20:50;;;;;;;1.40;1.00;;;10.70;99.90;;;;;;4905289;29;20849;-75
2023/11/02 08:23:16;;;;;;;2.10;1.00;;;10.70;99.90;;;;;;4926145;29;20462;-79
2023/11/02 08:25:43;;;;;;;3.63;1.10;;;10.80;99.90;;;;;;4940917;29;20211;-76
2023/11/02 08:28:09;;;;;;;3.17;0.90;;;10.90;99.90;;;;;;4937032;29;20545;-78
2023/11/02 08:30:35;;;;;;;1.40;0.90;;;11.00;99.90;;;;;;4912651;29;20424;-79
2023/11/02 08:33:02;;;;;;;3.33;1.00;;;11.30;99.90;;;;;;4940645;29;20431;-80
2023/11/02 08:35:28;;;;;;;5.07;0.90;;;11.50;99.90;;;;;;4906244;29;20207;-80
2023/11/02 08:37:54;;;;;;;2.43;1.17;;;11.60;99.90;;;;;;4919286;29;20435;-76
2023/11/02 08:40:21;;;;;;;1.70;1.13;;;11.70;99.90;;;;;;4936890;29;20459;-76
2023/11/02 08:42:47;;;;;;;2.73;1.10;;;11.80;99.90;;;;;;4931274;29;20781;-79
2023/11/02 08:45:14;;;;;;;2.77;0.97;;;11.90;99.90;;;;;;4936685;29;20452;-77
2023/11/02 08:47:40;;;;;;;6.40;1.47;;;12.00;99.90;;;;;;4914925;29;20425;-77
2023/11/02 08:50:08;;;;;;;2.03;1.00;;;12.20;99.90;;;;;;4942924;29;20416;-77
2023/11/02 08:52:34;;;;;;;1.83;0.90;;;12.30;99.90;;;;;;4912393;29;20758;-79
2023/11/02 08:55:00;;;;;;;1.80;0.93;;;12.40;99.90;;;;;;4918717;29;20465;-77
2023/11/02 08:57:27;;;;;;;3.13;1.20;;;12.50;99.90;;;;;;4912050;29;20439;-77
2023/11/02 08:59:54;;;;;;;5.40;1.10;;;12.60;99.90;;;;;;4940950;29;20194;-79
2023/11/02 09:02:19;;;;;;;1.80;0.93;;;12.70;99.90;;;;;;4936296;29;20489;-75
2023/11/02 09:04:45;;;;;;;3.50;0.90;;;12.80;99.90;;;;;;4923903;29;20561;-75
2023/11/02 09:07:10;;;;;;;2.77;0.97;;;12.90;99.90;;;;;;4922952;29;20220;-76
2023/11/02 09:09:36;;;;;;;1.43;0.80;;;12.90;99.90;;;;;;4914780;29;20197;-80
2023/11/02 09:12:02;;;;;;;2.13;1.30;;;13.00;99.90;;;;;;4936918;29;20201;-74
2023/11/02 09:14:27;;;;;;;2.03;1.17;;;13.00;99.90;;;;;;4905827;29;20272;-75
2023/11/02 09:16:53;;;;;;;1.77;1.00;;;13.10;99.90;;;;;;4918916;29;20205;-77
2023/11/02 09:19:19;;;;;;;4.90;1.70;;;13.10;99.90;;;;;;4929394;29;20593;-79
2023/11/02 09:21:44;;;;;;;3.00;1.33;;;13.20;99.90;;;;;;4922794;28;20198;-77
2023/11/02 09:24:11;;;;;;;1.97;0.93;;;13.30;99.90;;;;;;4926033;29;20211;-76
2023/11/02 09:26:41;;;;;;;2.30;1.20;;;13.40;99.90;;;;;;4918277;29;20183;-77
2023/11/02 09:29:07;;;;;;;2.27;0.90;;;13.50;99.90;;;;;;4927108;29;20560;-76
2023/11/02 09:31:33;;;;;;;5.30;1.30;;;13.60;99.90;;;;;;4924374;29;20434;-76
2023/11/02 09:34:01;;;;;;;3.07;0.80;;;13.70;99.90;;;;;;4920942;29;20441;-77
2023/11/02 09:36:27;;;;;;;3.77;1.40;;;13.80;99.90;;;;;;4899107;29;20194;-76
2023/11/02 09:38:53;;;;;;;2.20;1.20;;;13.90;99.90;;;;;;4926094;29;20509;-78
2023/11/02 09:41:19;;;;;;;3.27;1.27;;;14.00;99.90;;;;;;4951813;29;20428;-76
2023/11/02 09:43:45;;;;;;;1.53;1.00;;;14.00;99.90;;;;;;4935379;29;20458;-78
2023/11/02 09:46:14;;;;;;;1.83;0.97;;;14.10;99.90;;;;;;4936933;29;20209;-77
2023/11/02 09:48:41;;;;;;;17.70;3.23;;;14.20;99.90;;;;;;4925784;29;20440;-76
2023/11/02 09:51:08;;;;;;;3.10;1.50;;;14.20;99.90;;;;;;4936264;29;20663;-76
2023/11/02 09:53:34;;;;;;;2.50;1.40;;;14.30;99.90;;;;;;4924314;29;20433;-76
2023/11/02 09:56:00;;;;;;;3.47;1.30;;;14.30;99.90;;;;;;4915193;29;20537;-78
2023/11/02 09:58:26;;;;;;;2.50;1.20;;;14.40;99.90;;;;;;4925978;29;20233;-77
2023/11/02 10:00:53;;;;;;;3.73;1.20;;;14.50;99.90;;;;;;4944496;29;20446;-77
2023/11/02 10:03:19;;;;;;;4.70;1.27;;;14.60;99.90;;;;;;4935029;29;20493;-77
2023/11/02 10:05:45;;;;;;;3.70;1.60;;;14.70;99.90;;;;;;4950503;29;20444;-76
2023/11/02 10:08:12;;;;;;;3.90;1.27;;;14.80;99.90;;;;;;4920452;29;20297;-77
2023/11/02 10:10:38;;;;;;;3.97;1.43;;;14.80;99.90;;;;;;4916161;29;20889;-75
2023/11/02 10:13:04;;;;;;;6.63;2.60;;;14.90;99.90;;;;;;4941096;29;20435;-76
2023/11/02 10:15:30;;;;;;;8.40;2.00;;;14.90;99.90;;;;;;4917239;29;20497;-76
2023/11/02 10:17:56;;;;;;;3.97;1.53;;;14.90;99.90;;;;;;4914424;29;20198;-76
2023/11/02 10:20:22;;;;;;;4.57;1.50;;;15.00;99.90;;;;;;4917995;29;20442;-77
2023/11/02 10:23:09;;;;;;;5.80;1.63;;;15.10;99.90;;;;;;4912316;29;20195;-81
2023/11/02 10:25:38;;;;;;;4.30;1.27;;;15.20;99.90;;;;;;4900772;29;20447;-76
2023/11/02 10:28:05;;;;;;;3.47;1.80;;;15.20;99.90;;;;;;4924006;29;20444;-76
2023/11/02 10:30:31;;;;;;;3.93;1.83;;;15.30;99.90;;;;;;4926003;29;20430;-77
2023/11/02 10:33:05;;;;;;;5.10;1.50;;;15.30;98.70;;;;;;4932071;29;20398;-81
2023/11/02 10:35:32;;;;;;;3.43;1.20;;;15.30;98.00;;;;;;4921412;29;20453;-78
2023/11/02 10:38:00;;;;;;;5.33;1.50;;;15.40;97.70;;;;;;4888721;29;20403;-76
2023/11/02 10:40:43;;;;;;;4.30;1.43;;;15.40;96.60;;;;;;4900557;29;20437;-77
2023/11/02 10:43:19;;;;;;;3.50;1.77;;;15.40;95.30;;;;;;4921514;29;20522;-78
2023/11/02 10:45:50;;;;;;;4.80;1.47;;;15.50;94.10;;;;;;4902715;29;20441;-79
2023/11/02 10:48:19;;;;;;;3.47;1.50;;;15.40;94.50;;;;;;4904499;29;20437;-79
2023/11/02 10:50:47;;;;;;;7.10;2.13;;;15.50;93.50;;;;;;4925384;29;20420;-77
2023/11/02 10:53:29;;;;;;;6.33;1.93;;;15.60;93.30;;;;;;4893049;29;20431;-78
2023/11/02 10:56:03;;;;;;;2.87;1.50;;;15.70;90.40;;;;;;4951694;29;20502;-77
2023/11/02 10:58:31;;;;;;;4.57;1.27;;;15.80;86.20;;;;;;4916133;29;20486;-78
2023/11/02 11:00:59;;;;;;;4.57;2.10;;;15.80;85.60;;;;;;4901102;29;20466;-78
2023/11/02 11:03:27;;;;;;;5.33;1.40;;;15.80;84.00;;;;;;4919746;29;20524;-79
2023/11/02 11:05:56;;;;;;;3.67;1.70;;;15.90;83.40;;;;;;4916144;29;20458;-78
2023/11/02 11:08:24;;;;;;;7.17;2.17;;;15.90;83.60;;;;;;4904635;29;20437;-78
2023/11/02 11:10:51;;;;;;;7.87;1.70;;;15.90;81.40;;;;;;4916692;29;20419;-77
2023/11/02 11:13:18;;;;;;;6.53;1.80;;;15.80;80.90;;;;;;4930672;29;20869;-78
2023/11/02 11:15:45;;;;;;;3.80;1.67;;;15.80;78.70;;;;;;4920371;29;20621;-77
2023/11/02 11:18:14;;;;;;;6.33;2.10;;;15.70;80.10;;;;;;4917869;29;20440;-73
2023/11/02 11:20:42;;;;;;;3.03;1.67;;;15.70;80.00;;;;;;4913578;29;20428;-75
2023/11/02 11:23:09;;;;;;;4.17;1.60;;;15.60;79.20;;;;;;4930678;29;20750;-71
2023/11/02 11:25:54;;;;;;;4.47;1.47;;;15.60;79.10;;;;;;4920205;29;20900;-71
2023/11/02 11:28:31;;;;;;;7.63;2.33;;;15.50;79.40;;;;;;4914145;29;20465;-72
2023/11/02 11:31:02;;;;;;;2.60;1.40;;;15.50;79.20;;;;;;4931704;29;20511;-72
2023/11/02 11:33:48;;;;;;;6.60;2.20;;;15.60;79.40;;;;;;4931848;29;20430;-72
2023/11/02 11:36:24;;;;;;;7.63;3.60;;;15.60;78.50;;;;;;4920250;29;20450;-73
2023/11/02 11:38:51;;;;;;;4.83;1.67;;;15.60;76.70;;;;;;4919338;29;20872;-72
2023/11/02 11:41:42;;;;;;;4.83;1.83;;;15.50;74.30;;;;;;4938268;29;20508;-68
2023/11/02 11:44:17;;;;;;;11.77;2.27;;;15.50;73.60;;;;;;4936915;29;20472;-72
2023/11/02 11:46:51;;;;;;;12.83;2.90;;;15.60;72.60;;;;;;4915145;29;20416;-72
2023/11/02 11:49:36;;;;;;;9.10;2.07;;;15.60;73.00;;;;;;4946010;29;20470;-71
2023/11/02 11:52:02;;;;;;;8.73;2.10;;;15.50;71.30;;;;;;4931659;29;20437;-72
2023/11/02 11:54:29;;;;;;;21.33;3.73;;;15.50;70.20;;;;;;4930470;29;20442;-71
2023/11/02 11:56:55;;;;;;;7.20;2.27;;;15.40;71.20;;;;;;4922272;29;20500;-69
2023/11/02 11:59:55;;;;;;;7.60;2.13;;;15.40;70.80;;;;;;4939533;29;20484;-78
2023/11/02 12:02:41;;;;;;;6.23;1.87;;;15.40;70.70;;;;;;4949332;28;20198;-75
2023/11/02 12:05:09;;;;;;;10.10;2.50;;;15.40;70.60;;;;;;4890662;29;20463;-78
2023/11/02 12:07:36;;;;;;;6.13;1.67;;;15.40;70.20;;;;;;4948457;29;20427;-74
2023/11/02 12:10:05;;;;;;;4.90;1.40;;;15.40;70.40;;;;;;4923224;29;20417;-78
2023/11/02 12:12:31;;;;;;;9.93;2.27;;;15.30;69.80;;;;;;4933974;29;20449;-77
2023/11/02 12:15:20;;;;;;;6.73;2.57;;;15.30;68.80;;;;;;4934554;29;20447;-78
2023/11/02 12:17:53;;;;;;;11.10;2.60;;;15.30;69.00;;;;;;4933557;29;20412;-79
2023/11/02 12:20:35;;;;;;;10.20;2.70;;;15.20;69.50;;;;;;4931732;29;20421;-77
2023/11/02 12:23:01;;;;;;;10.90;2.57;;;15.20;68.80;;;;;;4931160;29;20514;-78
2023/11/02 12:25:27;;;;;;;6.07;1.80;;;15.30;68.60;;;;;;4905671;29;20459;-79
2023/11/02 12:27:56;;;;;;;6.33;2.00;;;15.30;68.00;;;;;;4914395;29;20189;-75
2023/11/02 12:30:22;;;;;;;6.10;1.70;;;15.30;66.00;;;;;;4949000;29;20430;-76
2023/11/02 12:32:48;;;;;;;10.17;2.30;;;15.30;65.20;;;;;;4930391;29;20482;-78
2023/11/02 12:35:21;;;;;;;10.00;1.93;;;15.40;64.70;;;;;;4919014;29;20217;-78
2023/11/02 12:37:59;;;;;;;7.00;2.03;;;15.50;63.80;;;;;;4913520;29;20446;-77
2023/11/02 12:40:24;;;;;;;11.57;2.33;;;15.50;63.70;;;;;;4922402;29;20434;-77
2023/11/02 12:42:50;;;;;;;7.67;2.37;;;15.70;62.80;;;;;;4917244;29;20417;-79
2023/11/02 12:45:25;;;;;;;8.63;2.60;;;15.60;61.30;;;;;;4933347;29;20225;-78
2023/11/02 12:47:50;;;;;;;7.53;2.70;;;15.60;61.80;;;;;;4941124;29;20194;-78
2023/11/02 12:50:32;;;;;;;7.13;2.33;;;15.60;62.70;;;;;;4931605;29;20411;-78
2023/11/02 12:52:58;;;;;;;5.03;1.93;;;15.60;62.00;;;;;;4905081;29;20179;-78
2023/11/02 12:55:46;;;;;;;6.50;2.20;;;15.50;62.20;;;;;;4920660;29;20468;-77
2023/11/02 12:58:15;;;;;;;4.60;1.70;;;15.30;62.60;;;;;;4936154;29;20562;-78
2023/11/02 13:00:40;;;;;;;8.10;2.00;;;15.20;62.70;;;;;;4902414;29;20433;-79
2023/11/02 13:03:12;;;;;;;6.50;2.03;;;15.10;63.00;;;;;;4927930;29;20457;-78